ADDS METAR Data INFO
IDs: Format: Raw Decoded Include TAF

Data at: 1232 UTC 25 Jul 2017

KBEA 251215Z AUTO 11004KT 7SM CLR A3005 RMK AO2
KBEA 251155Z AUTO 10004KT 7SM CLR A3005 RMK AO2
KBEA 251135Z AUTO 10004KT 10SM CLR A3004 RMK AO2
KBEA 251115Z AUTO 09004KT 7SM CLR A3004 RMK AO2
KBEA 251055Z AUTO 09003KT 7SM CLR A3003 RMK AO2
KBEA 251035Z AUTO 10003KT 7SM CLR A3003 RMK AO2
KBEA 251015Z AUTO 08003KT 10SM CLR A3003 RMK AO2
KBEA 250955Z AUTO 00000KT 10SM SCT012 A3002 RMK AO2
KBEA 250935Z AUTO 13004KT 10SM BKN012 A3001 RMK AO2
KBEA 250915Z AUTO 15004KT 10SM BKN014 A3001 RMK AO2
KBEA 250855Z AUTO 16006KT 10SM SCT016 A3001 RMK AO2
KBEA 250835Z AUTO 15006KT 10SM SCT013 A3001 RMK AO2
KBEA 250815Z AUTO 16007KT 10SM BKN013 27/27 A3001 RMK AO2 T02680268
KBEA 250755Z AUTO 15006KT 10SM SCT013 27/27 A3001 RMK AO2 T02680268
KBEA 250735Z AUTO 16008KT 10SM CLR 27/27 A3001 RMK AO2 T02700270
KBEA 250715Z AUTO 16008KT 10SM BKN019 BKN024 27/27 A3001 RMK AO2 T02720272
KBEA 250655Z AUTO 16010KT 10SM BKN019 BKN024 27/27 A3001 RMK AO2 T02730273
KBEA 250635Z AUTO 16007KT 10SM SCT019 27/27 A3001 RMK AO2 T02700270
KBEA 250615Z AUTO 16009KT 10SM SCT019 27/27 A3001 RMK AO2 T02700270
KBEA 250555Z AUTO 15005KT 10SM SCT021 27/27 A3001 RMK AO2 T02680268 10319 20268
KBEA 250535Z AUTO 16007KT 10SM CLR 27/27 A3001 RMK AO2 T02700270
KBEA 250515Z AUTO 15006KT 10SM CLR 27/25 A3001 RMK AO2 T02720251
KBEA 250455Z AUTO 15007KT 10SM CLR 27/25 A3001 RMK AO2 T02730250
KBEA 250435Z AUTO 15007KT 10SM CLR 28/25 A3000 RMK AO2 T02750250
KBEA 250415Z AUTO 15009G14KT 10SM CLR 28/25 A2999 RMK AO2 T02750250
KBEA 250355Z AUTO 15011KT 10SM CLR 28/25 A2998 RMK AO2 T02770250
KBEA 250335Z AUTO 15009KT 10SM CLR 28/25 A2998 RMK AO2 T02800250
KBEA 250315Z AUTO 15011KT 10SM CLR 28/25 A2997 RMK AO2 T02810250
KBEA 250255Z AUTO 14012G17KT 10SM CLR 28/25 A2996 RMK AO2 T02830248
KBEA 250235Z AUTO 15012G16KT 10SM CLR 29/25 A2995 RMK AO2 T02850246
KBEA 250215Z AUTO 14013G19KT 10SM CLR 29/25 A2995 RMK AO2 T02860245
KBEA 250155Z AUTO 14012G17KT 10SM CLR 29/24 A2995 RMK AO2 T02900243
KBEA 250135Z AUTO 14012G17KT 10SM CLR 29/24 A2996 RMK AO2 T02930240
KBEA 250115Z AUTO 14010KT 10SM CLR 30/24 A2996 RMK AO2 T02970238
KBEA 250055Z AUTO 13012G15KT 10SM CLR 31/24 A2995 RMK AO2 T03050236
KBEA 250035Z AUTO 15013G18KT 10SM CLR 31/23 A2995 RMK AO2 T03100233
KBEA 250020Z AUTO 14013G19KT 10SM CLR 31/23 A2994 RMK AO2 T03130227
KBEA 242355Z AUTO 13015G20KT 10SM CLR 32/22 A2993 RMK AO2 T03200221 10375 20320
KBEA 242340Z AUTO 14015G23KT 10SM CLR 33/22 A2993 RMK AO2 T03270220
KBEA 242315Z AUTO 14015G22KT 10SM CLR 33/22 A2992 RMK AO2 T03310224
KBEA 242255Z AUTO 13014G20KT 10SM CLR 34/23 A2991 RMK AO2 T03410225
KBEA 242235Z AUTO 14017G22KT 10SM CLR 35/22 A2990 RMK AO2 T03520223
KBEA 242215Z AUTO 14017G24KT 10SM CLR 36/21 A2990 RMK AO2 T03550212
KBEA 242155Z AUTO 14019G24KT 10SM CLR 36/21 A2991 RMK AO2 T03560208
KBEA 242135Z AUTO 14015G22KT 10SM CLR 35/21 A2991 RMK AO2 T03500212
KBEA 242115Z AUTO 15019G25KT 10SM CLR 36/21 A2990 RMK AO2 T03640206
KBEA 242055Z AUTO 16020G26KT 10SM CLR 37/21 A2991 RMK AO2 T03650208
KBEA 242035Z AUTO 12017G22KT 10SM CLR 36/21 A2992 RMK AO2 T03610211
KBEA 242015Z AUTO 13012G22KT 10SM CLR 37/21 A2992 RMK AO2 T03680208
KBEA 241955Z AUTO 17016G21KT 10SM CLR 37/19 A2993 RMK AO2 T03700193
KBEA 241935Z AUTO 17013G19KT 10SM CLR 37/19 A2994 RMK AO2 T03720193
KBEA 241915Z AUTO 15013G20KT 10SM CLR 37/18 A2994 RMK AO2 T03690180
KBEA 241855Z AUTO 17013G18KT 10SM CLR 37/18 A2995 RMK AO2 T03690182
KBEA 241835Z AUTO 15016G25KT 10SM CLR 37/18 A2996 RMK AO2 T03670181
KBEA 241820Z AUTO 18008G23KT 10SM CLR 36/18 A2997 RMK AO2 T03640179
KBEA 241755Z AUTO 18015G20KT 10SM CLR 36/19 A2997 RMK AO2 T03560188
KBEA 241735Z AUTO 18013G16KT 10SM CLR 35/19 A2998 RMK AO2 T03500194
KBEA 241715Z AUTO 18015G20KT 10SM CLR 34/21 A2998 RMK AO2 T03440209
KBEA 241655Z AUTO 19010G17KT 10SM CLR 34/21 A2998 RMK AO2 T03400213
KBEA 241635Z AUTO 18011G17KT 10SM CLR 34/21 A2998 RMK AO2 T03360212
KBEA 241615Z AUTO 18013G18KT 10SM CLR 33/22 A2998 RMK AO2 T03320216
KBEA 241600Z AUTO 20013G23KT 10SM CLR 33/22 A2998 RMK AO2 T03260217
KBEA 241535Z AUTO 19015G20KT 10SM CLR 32/23 A2998 RMK AO2 T03160231
KBEA 241520Z AUTO 19013G19KT 10SM SCT025 32/23 A2999 RMK AO2 T03150233
KBEA 241455Z AUTO 17014G19KT 10SM SCT027 30/24 A2999 RMK AO2 T03040242
KBEA 241440Z AUTO 19011KT 10SM SCT019 SCT024 30/24 A2998 RMK AO2 T02990242
KBEA 241415Z AUTO 19013G18KT 10SM BKN015 29/26 A2998 RMK AO2 T02940260
KBEA 241355Z AUTO 19013G16KT 10SM OVC013 28/28 A2997 RMK AO2 T02810278
KBEA 241335Z AUTO 18008KT 10SM OVC009 27/27 A2997 RMK AO2 T02700270
KBEA 241315Z AUTO 19009KT 10SM BKN011 BKN017 27/27 A2997 RMK AO2 T02650265
KBEA 241255Z AUTO 17006KT 10SM BKN013 A2996 RMK AO2
KBEA 241235Z AUTO 18005KT 7SM BKN013 A2995 RMK AO2
KBEA 241215Z AUTO 16005KT 7SM SCT016 A2996 RMK AO2
KBEA 241155Z AUTO 17007KT 10SM BKN014 A2995 RMK AO2
KBEA 241135Z AUTO 17008KT 10SM OVC014 A2995 RMK AO2
KBEA 241115Z AUTO 17007KT 10SM OVC014 A2994 RMK AO2
KBEA 241055Z AUTO 17007KT 10SM OVC014 A2994 RMK AO2
KBEA 241035Z AUTO 17007KT 10SM OVC012 26/26 A2993 RMK AO2 T02620262
KBEA 241015Z AUTO 17006KT 10SM OVC014 A2993 RMK AO2
KBEA 240955Z AUTO 16007KT 10SM OVC014 A2993 RMK AO2
KBEA 240935Z AUTO 16007KT 10SM OVC014 A2993 RMK AO2
KBEA 240915Z AUTO 17006KT 10SM OVC014 A2993 RMK AO2
KBEA 240855Z AUTO 16005KT 10SM OVC016 A2993 RMK AO2
KBEA 240835Z AUTO 16005KT 10SM SCT014 A2992 RMK AO2
KBEA 240815Z AUTO 17006KT 10SM SCT012 SCT018 A2992 RMK AO2
KBEA 240755Z AUTO 17007KT 10SM SCT012 A2992 RMK AO2
KBEA 240735Z AUTO 16008KT 10SM BKN014 27/27 A2992 RMK AO2 T02650265
KBEA 240715Z AUTO 16009KT 10SM BKN014 27/27 A2993 RMK AO2 T02650265
KBEA 240655Z AUTO 17009KT 10SM BKN014 27/27 A2993 RMK AO2 T02680268
KBEA 240635Z AUTO 17010KT 10SM SCT014 27/27 A2992 RMK AO2 T02690269
KBEA 240615Z AUTO 17009KT 10SM CLR 27/25 A2993 RMK AO2 T02710251
KBEA 240600Z AUTO 17011G15KT 10SM CLR 27/25 A2993 RMK AO2 T02730250
KBEA 240535Z AUTO 17013G18KT 10SM CLR 27/25 A2992 RMK AO2 T02740248
KBEA 240515Z AUTO 17015G19KT 10SM CLR 28/25 A2991 RMK AO2 T02750248
KBEA 240455Z AUTO 17015KT 10SM CLR 28/25 A2992 RMK AO2 T02760247
KBEA 240435Z AUTO 16014G19KT 10SM CLR 28/25 A2991 RMK AO2 T02760245
KBEA 240415Z AUTO 17015G20KT 10SM CLR 28/25 A2991 RMK AO2 T02800245
KBEA 240355Z AUTO 16013KT 10SM CLR 28/25 A2991 RMK AO2 T02800245
KBEA 240335Z AUTO 16011G18KT 10SM CLR 28/25 A2991 RMK AO2 T02820246
KBEA 240315Z AUTO 16015G18KT 10SM CLR 29/25 A2990 RMK AO2 T02850245
KBEA 240255Z AUTO 16012G18KT 10SM CLR 29/24 A2990 RMK AO2 T02880243
KBEA 240235Z AUTO 16013G19KT 10SM CLR 29/24 A2989 RMK AO2 T02910240
KBEA 240215Z AUTO 15012KT 10SM CLR 30/24 A2988 RMK AO2 T02960238
KBEA 240155Z AUTO 15012G17KT 10SM CLR 30/24 A2987 RMK AO2 T03010236
KBEA 240135Z AUTO 15013G20KT 10SM CLR 31/24 A2986 RMK AO2 T03090235
KBEA 240115Z AUTO 14012KT 10SM CLR 32/24 A2986 RMK AO2 T03160235
KBEA 240055Z AUTO 14012G17KT 10SM CLR 33/23 A2986 RMK AO2 T03250234
KBEA 240035Z AUTO 16014KT 10SM CLR 33/23 A2984 RMK AO2 T03320231